createdAt,value
2019-04-21T00:00:10.211Z,65.40
2019-04-21T00:01:08.692Z,65.40
2019-04-21T00:02:05.625Z,65.10
2019-04-21T00:03:10.020Z,64.90
2019-04-21T00:04:22.839Z,61.50
2019-04-21T00:05:26.122Z,62.80
2019-04-21T00:06:22.359Z,61.80
2019-04-21T00:07:27.755Z,63.00
2019-04-21T00:08:33.592Z,62.00
2019-04-21T00:09:25.460Z,67.10
2019-04-21T00:10:28.708Z,66.80
2019-04-21T00:11:30.083Z,71.00
2019-04-21T00:12:22.061Z,66.30
2019-04-21T00:13:22.611Z,66.30
2019-04-21T00:14:18.405Z,64.70
2019-04-21T00:15:19.401Z,66.60
2019-04-21T00:16:10.667Z,67.20
2019-04-21T00:17:09.733Z,68.10
2019-04-21T00:18:08.595Z,67.30
2019-04-21T00:19:13.887Z,69.10
2019-04-21T00:20:17.620Z,65.90
2019-04-21T00:21:14.875Z,68.70
2019-04-21T00:22:14.888Z,69.50
2019-04-21T00:23:22.665Z,70.70
2019-04-21T00:24:20.321Z,67.20
2019-04-21T00:25:20.724Z,70.50
2019-04-21T00:26:23.957Z,70.20
2019-04-21T00:27:20.232Z,75.50
2019-04-21T00:28:31.221Z,75.20
2019-04-21T00:29:33.038Z,74.20
2019-04-21T00:30:31.833Z,75.10
2019-04-21T00:31:24.769Z,79.20
2019-04-21T00:32:17.952Z,76.70
2019-04-21T00:33:09.178Z,79.70
2019-04-21T00:34:05.192Z,75.10
2019-04-21T00:35:09.962Z,80.30
2019-04-21T00:36:13.361Z,78.20
2019-04-21T00:37:15.539Z,74.90
2019-04-21T00:38:25.259Z,76.50
2019-04-21T00:39:37.188Z,73.70
2019-04-21T00:40:30.350Z,77.20
2019-04-21T00:41:25.104Z,77.40
2019-04-21T00:42:24.124Z,77.30
2019-04-21T00:43:26.579Z,81.90
2019-04-21T00:44:17.303Z,83.10
2019-04-21T00:45:18.190Z,86.50
2019-04-21T00:46:17.525Z,84.50
2019-04-21T00:47:26.671Z,82.70
2019-04-21T00:48:29.872Z,80.40
2019-04-21T00:49:19.708Z,77.50
2019-04-21T00:50:25.643Z,74.40
2019-04-21T00:51:34.372Z,77.60
2019-04-21T00:52:39.686Z,77.80
2019-04-21T00:53:35.764Z,78.40
2019-04-21T00:54:33.076Z,76.40
2019-04-21T00:55:35.483Z,75.70
2019-04-21T00:56:29.672Z,80.10
2019-04-21T00:57:34.336Z,82.00
2019-04-21T00:58:30.410Z,83.40
2019-04-21T00:59:25.645Z,80.80
2019-04-21T01:00:30.736Z,86.00
2019-04-21T01:01:25.283Z,89.60
2019-04-21T01:02:24.742Z,91.90
2019-04-21T01:03:26.747Z,93.00
2019-04-21T01:04:31.806Z,99.50
2019-04-21T01:05:34.050Z,103.90
2019-04-21T01:06:33.172Z,106.20
2019-04-21T01:07:28.186Z,103.90
2019-04-21T01:08:25.255Z,103.40
2019-04-21T01:09:25.940Z,106.50
2019-04-21T01:10:17.444Z,103.10
2019-04-21T01:11:23.993Z,103.20
2019-04-21T01:12:26.887Z,105.30
2019-04-21T01:13:27.294Z,108.80
2019-04-21T01:14:34.786Z,107.90
2019-04-21T01:15:32.519Z,112.80
2019-04-21T01:16:31.575Z,115.40
2019-04-21T01:17:28.835Z,116.10
2019-04-21T01:18:31.445Z,112.30
2019-04-21T01:19:21.668Z,119.10
2019-04-21T01:20:16.003Z,123.60
2019-04-21T01:21:13.745Z,124.90
2019-04-21T01:22:04.628Z,125.90
2019-04-21T01:23:04.366Z,136.50
2019-04-21T01:24:11.812Z,133.10
2019-04-21T01:25:13.404Z,137.70
2019-04-21T01:26:18.015Z,136.70
2019-04-21T01:27:12.671Z,141.30
2019-04-21T01:28:21.359Z,139.40
2019-04-21T01:29:19.329Z,139.60
2019-04-21T01:30:26.515Z,144.60
2019-04-21T01:31:22.907Z,143.60
2019-04-21T01:32:29.533Z,135.00
2019-04-21T01:33:27.795Z,131.80
2019-04-21T01:34:24.886Z,132.40
2019-04-21T01:35:30.081Z,133.00
2019-04-21T01:36:24.562Z,138.00
2019-04-21T01:37:20.739Z,125.70
2019-04-21T01:38:32.017Z,129.80
2019-04-21T01:39:27.157Z,125.20
2019-04-21T01:40:29.046Z,129.10
2019-04-21T01:41:29.890Z,129.40
2019-04-21T01:42:25.632Z,135.80
2019-04-21T01:43:24.987Z,127.10
2019-04-21T01:44:29.810Z,108.70
2019-04-21T01:45:22.423Z,107.30
2019-04-21T01:46:19.542Z,116.60
2019-04-21T01:47:20.459Z,127.60
2019-04-21T01:48:21.025Z,122.70
2019-04-21T01:49:15.793Z,133.10
2019-04-21T01:50:21.095Z,129.40
2019-04-21T01:51:18.940Z,132.80
2019-04-21T01:52:34.997Z,130.90
2019-04-21T01:53:31.061Z,127.20
2019-04-21T01:54:31.252Z,134.30
2019-04-21T01:55:26.382Z,135.80
2019-04-21T01:56:29.310Z,134.90
2019-04-21T01:57:23.105Z,130.90
2019-04-21T01:58:19.765Z,131.80
2019-04-21T01:59:14.111Z,135.60
2019-04-21T02:00:13.319Z,140.20
2019-04-21T02:01:24.632Z,135.40
2019-04-21T02:02:23.010Z,135.00
2019-04-21T02:03:43.399Z,137.20
2019-04-21T02:04:34.727Z,134.00
2019-04-21T02:05:31.318Z,136.20
2019-04-21T02:06:27.637Z,134.60
2019-04-21T02:07:27.052Z,133.30
2019-04-21T02:08:25.651Z,137.30
2019-04-21T02:09:24.005Z,131.50
2019-04-21T02:10:26.657Z,139.00
2019-04-21T02:11:44.353Z,136.60
2019-04-21T02:12:25.263Z,140.00
2019-04-21T02:13:23.153Z,140.10
2019-04-21T02:14:31.174Z,139.60
2019-04-21T02:15:29.687Z,135.70
2019-04-21T02:16:23.109Z,143.40
2019-04-21T02:17:23.843Z,136.00
2019-04-21T02:18:24.314Z,139.80
2019-04-21T02:19:18.027Z,141.10
2019-04-21T02:20:19.402Z,140.60
2019-04-21T02:21:17.974Z,142.60
2019-04-21T02:22:27.232Z,141.10
2019-04-21T02:23:34.544Z,148.90
2019-04-21T02:24:38.721Z,148.60
2019-04-21T02:25:26.054Z,149.90
2019-04-21T02:26:31.613Z,152.80
2019-04-21T02:27:23.803Z,149.70
2019-04-21T02:28:29.844Z,151.50
2019-04-21T02:29:29.061Z,148.30
2019-04-21T02:30:36.184Z,152.90
2019-04-21T02:31:39.539Z,145.90
2019-04-21T02:32:35.354Z,147.10
2019-04-21T02:33:39.138Z,149.40
2019-04-21T02:34:44.122Z,152.30
2019-04-21T02:35:38.500Z,153.80
2019-04-21T02:36:51.389Z,153.80
2019-04-21T02:37:44.581Z,155.40
2019-04-21T02:38:39.849Z,154.60
2019-04-21T02:40:39.042Z,143.40
2019-04-21T02:42:37.775Z,150.80
2019-04-21T02:43:58.230Z,139.80
2019-04-21T02:44:37.512Z,147.80
2019-04-21T02:45:43.492Z,144.00
2019-04-21T02:47:50.666Z,143.80
2019-04-21T02:48:38.855Z,140.40
2019-04-21T02:49:45.224Z,142.10
2019-04-21T02:50:37.590Z,136.70
2019-04-21T02:51:36.857Z,140.50
2019-04-21T02:52:37.393Z,138.40
2019-04-21T02:53:48.275Z,139.40
2019-04-21T02:55:28.987Z,134.00
2019-04-21T02:56:52.927Z,133.90
2019-04-21T02:57:41.244Z,130.70
2019-04-21T02:58:58.354Z,127.00
2019-04-21T02:59:33.740Z,128.80
2019-04-21T03:02:43.060Z,131.90
2019-04-21T03:04:36.149Z,132.30
2019-04-21T03:05:42.441Z,131.60
2019-04-21T03:06:45.751Z,130.10
2019-04-21T03:07:44.727Z,132.50
2019-04-21T03:09:45.901Z,133.40
2019-04-21T03:11:28.641Z,132.60
2019-04-21T03:12:28.653Z,131.90
2019-04-21T03:15:45.083Z,124.40
2019-04-21T03:16:34.767Z,126.20
2019-04-21T03:17:43.625Z,128.90
2019-04-21T03:18:48.570Z,130.90
2019-04-21T03:21:38.351Z,128.90
2019-04-21T03:25:04.270Z,136.30
2019-04-21T03:26:40.346Z,135.30
2019-04-21T03:28:37.006Z,142.50
2019-04-21T03:29:40.208Z,142.40
2019-04-21T03:32:14.340Z,150.00
2019-04-21T03:33:08.437Z,145.70
2019-04-21T03:35:00.256Z,147.40
2019-04-21T03:36:52.839Z,155.80
2019-04-21T03:38:37.655Z,152.30
2019-04-21T03:39:36.663Z,152.20
2019-04-21T03:41:39.989Z,149.30
2019-04-21T03:42:38.968Z,143.80
2019-04-21T03:43:40.151Z,145.50
2019-04-21T03:44:37.402Z,141.30
2019-04-21T03:46:42.167Z,145.30
2019-04-21T03:47:36.075Z,139.90
2019-04-21T03:48:36.649Z,144.20
2019-04-21T03:49:48.118Z,142.60
2019-04-21T03:52:39.274Z,140.00
2019-04-21T03:53:32.049Z,137.10
2019-04-21T03:54:37.158Z,132.90
2019-04-21T03:56:52.449Z,134.20
2019-04-21T03:57:46.364Z,140.10
2019-04-21T03:58:47.455Z,135.50
2019-04-21T03:59:25.801Z,136.20
2019-04-21T04:01:32.377Z,145.40
2019-04-21T04:02:52.359Z,143.50
2019-04-21T04:05:48.159Z,141.50
2019-04-21T04:06:35.537Z,142.10
2019-04-21T04:07:44.220Z,137.40
2019-04-21T04:09:37.586Z,137.40
2019-04-21T04:10:31.678Z,137.90
2019-04-21T04:11:37.769Z,132.40
2019-04-21T04:12:34.991Z,129.30
2019-04-21T04:14:40.001Z,129.30
2019-04-21T04:15:39.466Z,128.20
2019-04-21T04:19:42.015Z,123.40
2019-04-21T04:23:41.622Z,131.10
2019-04-21T04:24:49.336Z,126.00
2019-04-21T04:26:42.926Z,124.00
2019-04-21T04:27:49.464Z,118.20
2019-04-21T04:34:42.023Z,125.40
2019-04-21T04:35:42.379Z,128.40
2019-04-21T04:36:50.024Z,129.20
2019-04-21T04:38:39.280Z,126.60
2019-04-21T04:39:45.988Z,124.50
2019-04-21T04:41:53.203Z,120.90
2019-04-21T04:42:41.094Z,118.50
2019-04-21T04:43:39.056Z,120.20
2019-04-21T04:44:50.051Z,111.50
2019-04-21T04:45:44.179Z,112.50
2019-04-21T04:46:44.264Z,114.60
2019-04-21T04:49:46.389Z,110.80
2019-04-21T04:50:45.493Z,112.10
2019-04-21T04:51:44.382Z,112.60
2019-04-21T04:55:33.502Z,106.30
2019-04-21T04:56:31.444Z,107.90
2019-04-21T04:57:46.985Z,106.80
2019-04-21T05:00:35.080Z,105.50
2019-04-21T05:01:55.448Z,106.50
2019-04-21T05:03:43.906Z,108.40
2019-04-21T05:04:46.221Z,102.20
2019-04-21T05:05:44.998Z,101.70
2019-04-21T05:07:42.853Z,100.90
2019-04-21T05:08:44.853Z,102.70
2019-04-21T05:10:43.110Z,101.50
2019-04-21T05:12:32.486Z,102.90
2019-04-21T05:13:34.506Z,102.20
2019-04-21T05:14:30.119Z,110.80
2019-04-21T05:15:25.525Z,110.80
2019-04-21T05:16:41.129Z,118.40
2019-04-21T05:17:37.849Z,116.00
2019-04-21T05:18:35.179Z,118.70
2019-04-21T05:19:53.977Z,120.40
2019-04-21T05:20:23.772Z,123.10
2019-04-21T05:21:37.555Z,125.90
2019-04-21T05:23:28.755Z,114.20
2019-04-21T05:24:25.601Z,113.60
2019-04-21T05:25:20.859Z,117.30
2019-04-21T05:26:14.335Z,112.40
2019-04-21T05:27:16.633Z,112.10
2019-04-21T05:28:16.446Z,109.50
2019-04-21T05:29:18.477Z,109.10
2019-04-21T05:30:29.593Z,109.80
2019-04-21T05:31:27.096Z,108.50
2019-04-21T05:32:26.445Z,111.50
2019-04-21T05:33:27.566Z,109.10
2019-04-21T05:34:23.300Z,106.40
2019-04-21T05:35:20.089Z,109.50
2019-04-21T05:36:20.496Z,112.10
2019-04-21T05:37:25.934Z,111.60
2019-04-21T05:38:21.837Z,113.40
2019-04-21T05:39:18.788Z,117.60
2019-04-21T05:40:19.576Z,122.50
2019-04-21T05:41:14.935Z,122.60
2019-04-21T05:42:11.024Z,122.50
2019-04-21T05:43:21.362Z,123.00
2019-04-21T05:44:33.303Z,117.70
2019-04-21T05:45:26.897Z,117.50
2019-04-21T05:46:26.112Z,110.60
2019-04-21T05:47:29.878Z,113.50
2019-04-21T05:49:22.000Z,106.10
2019-04-21T05:50:19.085Z,69.60
2019-04-21T05:51:20.522Z,67.80
2019-04-21T05:52:21.055Z,67.30
2019-04-21T05:53:31.286Z,67.80
2019-04-21T05:54:29.432Z,66.20
2019-04-21T05:55:31.747Z,63.80
2019-04-21T05:56:25.122Z,66.40
2019-04-21T05:57:22.228Z,64.90
2019-04-21T05:58:21.013Z,64.90
2019-04-21T05:59:23.566Z,67.20
2019-04-21T06:00:31.021Z,62.30
2019-04-21T06:01:39.338Z,64.00
2019-04-21T06:02:38.498Z,63.80
2019-04-21T06:03:29.291Z,61.40
2019-04-21T06:04:41.562Z,62.30
2019-04-21T06:05:31.819Z,61.90
2019-04-21T06:06:26.221Z,63.60
2019-04-21T06:08:29.753Z,59.20
2019-04-21T06:09:27.226Z,59.60
2019-04-21T06:10:27.334Z,61.30
2019-04-21T06:11:25.231Z,61.20
2019-04-21T06:12:21.330Z,55.10
2019-04-21T06:13:26.814Z,56.20
2019-04-21T06:14:29.340Z,56.40
2019-04-21T06:15:29.355Z,54.90
2019-04-21T06:16:30.309Z,58.10
2019-04-21T06:17:31.433Z,55.60
2019-04-21T06:18:27.077Z,57.70
2019-04-21T06:19:31.171Z,56.00
2019-04-21T06:20:27.211Z,54.00
2019-04-21T06:21:25.166Z,52.60
2019-04-21T06:22:18.860Z,50.40
2019-04-21T06:23:25.745Z,54.30
2019-04-21T06:24:25.168Z,53.70
2019-04-21T06:25:50.033Z,51.80
2019-04-21T06:27:27.992Z,54.60
2019-04-21T06:28:30.320Z,54.60
2019-04-21T06:29:23.699Z,50.40
2019-04-21T06:30:27.721Z,52.80
2019-04-21T06:31:33.786Z,50.50
2019-04-21T06:32:38.510Z,53.50
2019-04-21T06:33:33.391Z,53.30
2019-04-21T06:34:24.883Z,53.60
2019-04-21T06:35:37.769Z,55.00
2019-04-21T06:36:38.758Z,55.60
2019-04-21T06:37:40.212Z,54.00
2019-04-21T06:38:35.973Z,56.20
2019-04-21T06:39:25.185Z,61.80
2019-04-21T06:40:30.533Z,60.30
2019-04-21T06:42:23.855Z,53.50
2019-04-21T06:43:38.577Z,55.60
2019-04-21T06:44:23.989Z,54.00
2019-04-21T06:45:27.592Z,56.70
2019-04-21T06:46:30.879Z,54.70
2019-04-21T06:47:32.454Z,59.30
2019-04-21T06:48:24.577Z,63.30
2019-04-21T06:49:20.406Z,62.80
2019-04-21T06:50:22.743Z,62.10
2019-04-21T06:51:28.890Z,64.70
2019-04-21T06:53:29.590Z,66.00
2019-04-21T06:54:23.562Z,64.00
2019-04-21T06:55:26.457Z,62.70
2019-04-21T06:56:32.339Z,58.70
2019-04-21T06:57:28.958Z,57.20
2019-04-21T06:58:28.971Z,56.10
2019-04-21T06:59:21.092Z,59.30
2019-04-21T07:00:18.522Z,60.00
2019-04-21T07:01:26.562Z,61.00
2019-04-21T07:02:36.075Z,57.50
2019-04-21T07:03:40.531Z,63.70
2019-04-21T07:04:31.513Z,62.20
2019-04-21T07:05:26.336Z,65.40
2019-04-21T07:06:26.370Z,66.20
2019-04-21T07:07:25.610Z,70.50
2019-04-21T07:09:25.509Z,70.50
2019-04-21T07:11:21.111Z,79.40
2019-04-21T07:12:23.195Z,79.20
2019-04-21T07:13:22.275Z,76.90
2019-04-21T07:14:30.064Z,77.60
2019-04-21T07:15:25.302Z,78.90
2019-04-21T07:16:25.620Z,92.50
2019-04-21T07:17:24.340Z,94.80
2019-04-21T07:18:30.052Z,92.80
2019-04-21T07:19:30.865Z,93.60
2019-04-21T07:20:21.975Z,100.80
2019-04-21T07:21:21.872Z,109.40
2019-04-21T07:22:24.476Z,101.40
2019-04-21T07:23:28.545Z,106.50
2019-04-21T07:24:25.115Z,108.80
2019-04-21T07:25:26.461Z,115.20
2019-04-21T07:26:27.878Z,125.10
2019-04-21T07:27:22.256Z,130.10
2019-04-21T07:28:25.118Z,136.00
2019-04-21T07:29:29.813Z,138.60
2019-04-21T07:30:28.008Z,142.20
2019-04-21T07:31:25.294Z,142.30
2019-04-21T07:32:20.914Z,154.90
2019-04-21T07:33:41.504Z,165.60
2019-04-21T07:34:28.521Z,164.60
2019-04-21T07:35:22.118Z,168.40
2019-04-21T07:36:32.355Z,172.80
2019-04-21T07:37:25.488Z,178.20
2019-04-21T07:38:21.176Z,188.70
2019-04-21T07:39:18.509Z,183.00
2019-04-21T07:40:17.796Z,189.30
2019-04-21T07:41:15.937Z,186.00
2019-04-21T07:42:18.573Z,189.90
2019-04-21T07:43:18.177Z,188.40
2019-04-21T07:44:16.825Z,196.10
2019-04-21T07:45:16.884Z,187.60
2019-04-21T07:46:16.845Z,193.90
2019-04-21T07:47:23.502Z,199.80
2019-04-21T07:48:18.999Z,201.60
2019-04-21T07:49:19.221Z,204.20
2019-04-21T07:50:24.193Z,198.90
2019-04-21T07:51:25.363Z,199.90
2019-04-21T07:52:22.164Z,199.60
2019-04-21T07:53:27.703Z,195.90
2019-04-21T07:54:33.838Z,205.50
2019-04-21T07:56:07.238Z,205.80
2019-04-21T07:57:16.836Z,216.80
2019-04-21T07:58:22.521Z,216.10
2019-04-21T07:59:28.158Z,221.00
2019-04-21T08:01:28.840Z,221.20
2019-04-21T08:02:22.209Z,233.70
2019-04-21T08:03:24.988Z,227.20
2019-04-21T08:04:39.320Z,226.50
2019-04-21T08:05:24.860Z,231.60
2019-04-21T08:06:22.756Z,227.00
2019-04-21T08:07:21.952Z,221.80
2019-04-21T08:08:20.792Z,228.50
2019-04-21T08:09:18.951Z,231.70
2019-04-21T08:10:16.086Z,225.70
2019-04-21T08:11:24.321Z,231.40
2019-04-21T08:12:16.033Z,236.30
2019-04-21T08:13:28.774Z,241.10
2019-04-21T08:14:24.216Z,230.60
2019-04-21T08:15:30.695Z,234.10
2019-04-21T08:16:24.162Z,231.80
2019-04-21T08:17:16.231Z,230.80
2019-04-21T08:18:21.057Z,228.00
2019-04-21T08:19:19.194Z,241.80
2019-04-21T08:20:18.814Z,231.20
2019-04-21T08:21:23.633Z,235.80
2019-04-21T08:22:27.168Z,245.60
2019-04-21T08:23:21.589Z,242.20
2019-04-21T08:24:20.076Z,248.70
2019-04-21T08:25:21.817Z,234.20
2019-04-21T08:26:17.456Z,240.60
2019-04-21T08:28:21.066Z,235.90
2019-04-21T08:29:29.707Z,245.10
2019-04-21T08:30:20.439Z,249.10
2019-04-21T08:31:25.749Z,239.20
2019-04-21T08:32:26.562Z,241.00
2019-04-21T08:33:26.262Z,236.10
2019-04-21T08:34:22.604Z,233.20
2019-04-21T08:35:49.723Z,242.80
2019-04-21T08:37:13.941Z,231.50
2019-04-21T08:38:13.583Z,243.60
2019-04-21T08:39:13.201Z,246.80
2019-04-21T08:40:17.710Z,239.20
2019-04-21T08:41:15.221Z,245.70
2019-04-21T08:42:10.932Z,235.50
2019-04-21T08:43:22.821Z,245.10
2019-04-21T08:44:10.534Z,233.50
2019-04-21T08:45:16.258Z,249.60
2019-04-21T08:46:16.066Z,243.00
2019-04-21T08:47:15.497Z,247.50
2019-04-21T08:49:15.006Z,239.40
2019-04-21T08:50:16.614Z,241.60
2019-04-21T08:52:21.302Z,236.50
2019-04-21T08:53:12.541Z,237.30
2019-04-21T08:54:15.168Z,237.00
2019-04-21T08:55:22.563Z,239.50
2019-04-21T08:56:16.453Z,247.10
2019-04-21T08:57:14.554Z,258.30
2019-04-21T08:59:18.941Z,243.40
2019-04-21T09:01:17.819Z,250.80
2019-04-21T09:02:15.851Z,250.20
2019-04-21T09:03:14.310Z,236.10
2019-04-21T09:04:12.788Z,224.50
2019-04-21T09:05:12.617Z,238.20
2019-04-21T09:06:17.554Z,234.30
2019-04-21T09:07:18.239Z,240.20
2019-04-21T09:08:13.429Z,245.60
2019-04-21T09:10:09.374Z,225.70
2019-04-21T09:11:11.488Z,229.40
2019-04-21T09:12:10.283Z,223.60
2019-04-21T09:13:10.278Z,213.80
2019-04-21T09:14:13.075Z,223.40
2019-04-21T09:15:14.067Z,229.90
2019-04-21T09:16:08.503Z,224.90
2019-04-21T09:17:06.517Z,213.20
2019-04-21T09:18:08.730Z,220.10
2019-04-21T09:19:11.747Z,214.90
2019-04-21T09:20:17.212Z,213.90
2019-04-21T09:21:14.859Z,215.00
2019-04-21T09:22:14.198Z,214.70
2019-04-21T09:23:13.299Z,212.80
2019-04-21T09:24:11.533Z,195.30
2019-04-21T09:25:16.287Z,188.50
2019-04-21T09:26:14.094Z,196.90
2019-04-21T09:27:08.386Z,201.70
2019-04-21T09:28:12.613Z,203.70
2019-04-21T09:29:05.710Z,215.50
2019-04-21T09:29:57.560Z,208.60
2019-04-21T09:30:57.881Z,207.70
2019-04-21T09:31:57.313Z,190.90
2019-04-21T09:32:56.383Z,191.70
2019-04-21T09:33:56.977Z,196.00
2019-04-21T09:34:53.052Z,201.90
2019-04-21T09:35:56.362Z,192.60
2019-04-21T09:37:03.330Z,203.40
2019-04-21T09:37:59.622Z,186.60
2019-04-21T09:39:01.168Z,184.70
2019-04-21T09:39:55.937Z,188.80
2019-04-21T09:40:54.513Z,193.20
2019-04-21T09:41:56.539Z,190.40
2019-04-21T09:42:59.507Z,180.40
2019-04-21T09:43:55.860Z,169.50
2019-04-21T09:44:57.014Z,161.50
2019-04-21T09:45:54.241Z,161.30
2019-04-21T09:46:54.938Z,159.40
2019-04-21T09:48:01.033Z,165.80
2019-04-21T09:49:00.349Z,172.00
2019-04-21T09:49:54.313Z,174.10
2019-04-21T09:50:52.468Z,165.50
2019-04-21T09:51:52.968Z,148.70
2019-04-21T09:52:57.688Z,149.20
2019-04-21T09:54:00.918Z,157.20
2019-04-21T09:55:02.095Z,153.20
2019-04-21T09:55:58.200Z,151.60
2019-04-21T09:56:58.552Z,129.80
2019-04-21T09:57:56.963Z,136.00
2019-04-21T09:59:03.815Z,135.10
2019-04-21T10:00:03.865Z,130.50
2019-04-21T10:01:04.872Z,138.30
2019-04-21T10:02:03.647Z,136.40
2019-04-21T10:03:00.914Z,137.80
2019-04-21T10:03:57.195Z,135.20
2019-04-21T10:04:52.809Z,130.00
2019-04-21T10:05:52.072Z,133.40
2019-04-21T10:06:51.978Z,135.80
2019-04-21T10:07:53.010Z,126.50
2019-04-21T10:08:58.326Z,123.20
2019-04-21T10:09:52.672Z,122.90
2019-04-21T10:10:51.660Z,124.60
2019-04-21T10:11:52.769Z,126.90
2019-04-21T10:12:52.021Z,125.40
2019-04-21T10:13:52.928Z,123.50
2019-04-21T10:14:51.846Z,126.10
2019-04-21T10:15:51.951Z,127.90
2019-04-21T10:16:51.656Z,116.10
2019-04-21T10:17:52.022Z,125.00
2019-04-21T10:18:52.361Z,134.20
2019-04-21T10:19:52.764Z,127.50
2019-04-21T10:20:51.548Z,119.70
2019-04-21T10:21:52.031Z,124.70
2019-04-21T10:22:51.571Z,118.60
2019-04-21T10:23:52.246Z,121.50
2019-04-21T10:24:52.179Z,115.20
2019-04-21T10:25:52.558Z,117.60
2019-04-21T10:26:51.487Z,116.20
2019-04-21T10:27:52.760Z,111.60
2019-04-21T10:28:52.936Z,118.20
2019-04-21T10:29:52.256Z,124.20
2019-04-21T10:30:52.827Z,115.00
2019-04-21T10:31:52.442Z,111.50
2019-04-21T10:32:52.451Z,123.40
2019-04-21T10:33:52.527Z,118.60
2019-04-21T10:34:52.758Z,110.20
2019-04-21T10:35:51.401Z,116.90
2019-04-21T10:36:51.473Z,115.50
2019-04-21T10:38:03.478Z,115.90
2019-04-21T10:38:53.937Z,113.50
2019-04-21T10:39:51.601Z,124.20
2019-04-21T10:40:51.749Z,112.30
2019-04-21T10:41:51.332Z,111.10
2019-04-21T10:42:52.250Z,114.90
2019-04-21T10:43:51.518Z,107.70
2019-04-21T10:44:52.612Z,108.40
2019-04-21T10:45:52.767Z,112.50
2019-04-21T10:46:52.532Z,109.20
2019-04-21T10:47:52.716Z,107.30
2019-04-21T10:48:52.559Z,106.50
2019-04-21T10:49:51.246Z,108.50
2019-04-21T10:50:51.234Z,102.60
2019-04-21T10:51:51.284Z,104.80
2019-04-21T10:52:51.218Z,108.50
2019-04-21T10:53:53.889Z,108.10
2019-04-21T10:55:15.072Z,112.40
2019-04-21T10:56:06.474Z,115.60
2019-04-21T10:56:52.611Z,106.50
2019-04-21T10:57:51.148Z,106.60
2019-04-21T10:58:52.180Z,95.50
2019-04-21T10:59:54.117Z,103.50
2019-04-21T11:00:52.708Z,102.30
2019-04-21T11:01:51.105Z,99.80
2019-04-21T11:02:51.095Z,94.40
2019-04-21T11:03:51.133Z,95.10
2019-04-21T11:04:51.161Z,99.30
2019-04-21T11:05:52.584Z,99.00
2019-04-21T11:06:51.056Z,100.30
2019-04-21T11:08:01.171Z,97.50
2019-04-21T11:08:55.367Z,93.70
2019-04-21T11:09:51.859Z,100.10
2019-04-21T11:10:51.942Z,99.60
2019-04-21T11:11:53.161Z,107.20
2019-04-21T11:12:51.015Z,103.20
2019-04-21T11:13:51.001Z,98.50
2019-04-21T11:14:51.454Z,94.50
2019-04-21T11:15:51.041Z,97.70
2019-04-21T11:16:52.930Z,97.90
2019-04-21T11:17:52.239Z,101.70
2019-04-21T11:18:51.627Z,100.30
2019-04-21T11:19:50.916Z,99.20
2019-04-21T11:20:51.193Z,93.60
2019-04-21T11:21:50.906Z,99.10
2019-04-21T11:22:51.401Z,99.70
2019-04-21T11:23:52.110Z,91.40
2019-04-21T11:24:51.140Z,93.50
2019-04-21T11:25:51.680Z,95.20
2019-04-21T11:26:51.957Z,96.20
2019-04-21T11:27:51.212Z,91.30
2019-04-21T11:28:50.883Z,94.00
2019-04-21T11:29:51.692Z,90.40
2019-04-21T11:30:51.034Z,89.50
2019-04-21T11:31:51.348Z,99.10
2019-04-21T11:32:51.116Z,93.10
2019-04-21T11:33:51.190Z,87.00
2019-04-21T11:34:51.511Z,83.50
2019-04-21T11:35:51.227Z,99.10
2019-04-21T11:36:52.158Z,100.80
2019-04-21T11:37:50.745Z,101.60
2019-04-21T11:39:06.113Z,100.00
2019-04-21T11:39:59.367Z,95.70
2019-04-21T11:40:51.843Z,90.10
2019-04-21T11:41:51.904Z,91.50
2019-04-21T11:42:51.549Z,90.60
2019-04-21T11:43:50.896Z,98.40
2019-04-21T11:44:51.487Z,95.10
2019-04-21T11:45:50.631Z,99.30
2019-04-21T11:46:50.623Z,94.90
2019-04-21T11:47:50.625Z,90.90
2019-04-21T11:48:50.602Z,102.20
2019-04-21T11:49:50.607Z,95.50
2019-04-21T11:50:50.965Z,96.00
2019-04-21T11:51:51.160Z,89.70
2019-04-21T11:52:50.557Z,88.40
2019-04-21T11:53:50.810Z,90.30
2019-04-21T11:54:50.925Z,88.60
2019-04-21T11:55:53.208Z,89.00
2019-04-21T11:56:50.715Z,87.20
2019-04-21T11:57:51.757Z,89.70
2019-04-21T11:58:51.834Z,79.60
2019-04-21T11:59:51.402Z,83.30
2019-04-21T12:00:52.063Z,89.80
2019-04-21T12:01:51.720Z,80.70
2019-04-21T12:02:51.167Z,83.40
2019-04-21T12:03:51.717Z,89.10
2019-04-21T12:04:51.556Z,90.50
2019-04-21T12:05:51.200Z,83.90
2019-04-21T12:06:51.157Z,88.70
2019-04-21T12:07:51.316Z,86.10
2019-04-21T12:08:52.887Z,89.40
2019-04-21T12:09:51.307Z,78.50
2019-04-21T12:10:51.518Z,77.90
2019-04-21T12:11:51.442Z,80.80
2019-04-21T12:12:50.999Z,77.70
2019-04-21T12:13:50.346Z,76.40
2019-04-21T12:14:50.363Z,79.90
2019-04-21T12:15:50.352Z,82.40
2019-04-21T12:16:50.911Z,86.00
2019-04-21T12:17:50.288Z,86.20
2019-04-21T12:18:51.206Z,83.20
2019-04-21T12:19:50.699Z,83.70
2019-04-21T12:20:51.612Z,79.00
2019-04-21T12:22:01.176Z,80.00
2019-04-21T12:22:51.252Z,77.50
2019-04-21T12:23:50.347Z,77.80
2019-04-21T12:24:51.299Z,73.50
2019-04-21T12:25:51.467Z,75.50
2019-04-21T12:26:50.233Z,71.70
2019-04-21T12:27:50.201Z,78.90
2019-04-21T12:28:50.252Z,73.50
2019-04-21T12:29:51.569Z,73.30
2019-04-21T12:30:51.577Z,82.80
2019-04-21T12:31:50.152Z,81.60
2019-04-21T12:32:50.132Z,80.30
2019-04-21T12:33:50.124Z,77.40
2019-04-21T12:34:51.841Z,74.80
2019-04-21T12:35:51.478Z,71.60
2019-04-21T12:36:50.761Z,76.30
2019-04-21T12:37:51.017Z,81.70
2019-04-21T12:38:55.900Z,85.60
2019-04-21T12:39:52.480Z,81.60
2019-04-21T12:40:50.746Z,79.40
2019-04-21T12:41:50.811Z,78.50
2019-04-21T12:42:50.486Z,76.80
2019-04-21T12:43:50.747Z,74.50
2019-04-21T12:44:50.080Z,75.60
2019-04-21T12:45:50.008Z,77.50
2019-04-21T12:46:50.103Z,73.50
2019-04-21T12:47:50.731Z,77.40
2019-04-21T12:48:49.967Z,74.10
2019-04-21T12:49:50.025Z,72.60
2019-04-21T12:50:49.997Z,72.40
2019-04-21T12:51:51.426Z,73.10
2019-04-21T12:52:49.943Z,73.10
2019-04-21T12:53:49.940Z,76.00
2019-04-21T12:54:51.381Z,69.20
2019-04-21T12:55:50.032Z,73.60
2019-04-21T12:56:49.903Z,67.50
2019-04-21T12:57:49.873Z,68.90
2019-04-21T12:58:51.345Z,67.90
2019-04-21T12:59:50.907Z,67.90
2019-04-21T13:00:51.553Z,67.90
2019-04-21T13:01:50.751Z,68.30
2019-04-21T13:02:49.899Z,63.80
2019-04-21T13:03:50.045Z,64.40
2019-04-21T13:04:52.200Z,69.10
2019-04-21T13:05:49.906Z,65.90
2019-04-21T13:06:49.952Z,64.50
2019-04-21T13:07:50.961Z,64.60
2019-04-21T13:08:54.491Z,67.50
2019-04-21T13:09:50.753Z,62.40
2019-04-21T13:10:49.808Z,61.30
2019-04-21T13:11:50.900Z,64.60
2019-04-21T13:12:50.077Z,65.90
2019-04-21T13:13:50.189Z,66.10
2019-04-21T13:14:49.732Z,66.50
2019-04-21T13:15:49.759Z,70.20
2019-04-21T13:16:49.795Z,65.40
2019-04-21T13:17:50.214Z,68.30
2019-04-21T13:18:49.714Z,71.00
2019-04-21T13:19:49.702Z,74.20
2019-04-21T13:20:49.705Z,68.00
2019-04-21T13:21:49.926Z,65.50
2019-04-21T13:22:50.294Z,65.70
2019-04-21T13:23:50.428Z,69.90
2019-04-21T13:24:49.667Z,67.30
2019-04-21T13:25:49.985Z,66.90
2019-04-21T13:26:55.965Z,69.60
2019-04-21T13:27:50.556Z,67.10
2019-04-21T13:28:50.081Z,68.10
2019-04-21T13:29:50.401Z,63.20
2019-04-21T13:30:50.684Z,70.30
2019-04-21T13:31:50.035Z,69.50
2019-04-21T13:32:51.073Z,67.90
2019-04-21T13:33:50.210Z,63.50
2019-04-21T13:34:50.923Z,65.60
2019-04-21T13:35:50.803Z,65.80
2019-04-21T13:36:49.878Z,66.10
2019-04-21T13:37:50.694Z,72.80
2019-04-21T13:39:23.303Z,66.20
2019-04-21T13:40:16.418Z,63.30
2019-04-21T13:41:05.370Z,66.00
2019-04-21T13:42:05.603Z,61.90
2019-04-21T13:42:55.081Z,66.70
2019-04-21T13:43:50.861Z,72.50
2019-04-21T13:44:50.858Z,63.70
2019-04-21T13:45:49.922Z,69.60
2019-04-21T13:46:49.380Z,69.80
2019-04-21T13:47:50.373Z,77.00
2019-04-21T13:48:50.739Z,80.70
2019-04-21T13:49:49.614Z,73.90
2019-04-21T13:50:49.328Z,73.10
2019-04-21T13:51:50.050Z,73.00